SIA967 WIII-WSSS
Flight info
| Callsign | SIA967 |
|---|---|
| Flight time | N/A |
| Altitude | 40000 |
| Route | DOLTA G579 REPOV REPOV2B |
| Aircraft | A359/H-SDE1E2E3GHIJ1J2J3J5M1P2RWXYZ/LB1D1 |
Departure
| Time | 2026-05-01 09:16 |
|---|---|
| Airport | Soekarno-Hatta International Airport (WIII) |
Arrival
| Time | N/A |
|---|---|
| Airport | Singapore Changi Airport (WSSS) |
| Time | Latitude | Longitude | Altitude | Speed | Heading |
|---|---|---|---|---|---|
| 2026-05-01 08:44 | -6.11697 | 106.66604 | 31 ft | 0 kts | 158° |
| 2026-05-01 09:04 | -6.11694 | 106.66603 | 31 ft | 3 kts | 158° |
| 2026-05-01 09:04 | -6.11677 | 106.66595 | 29 ft | 3 kts | 158° |
| 2026-05-01 09:05 | -6.11660 | 106.66588 | 30 ft | 3 kts | 158° |
| 2026-05-01 09:05 | -6.11644 | 106.66582 | 29 ft | 3 kts | 158° |
| 2026-05-01 09:05 | -6.11628 | 106.66575 | 28 ft | 3 kts | 165° |
| 2026-05-01 09:05 | -6.11608 | 106.66574 | 28 ft | 3 kts | 207° |
| 2026-05-01 09:06 | -6.11592 | 106.66584 | 29 ft | 3 kts | 235° |
| 2026-05-01 09:06 | -6.11588 | 106.66590 | 28 ft | 0 kts | 251° |
| 2026-05-01 09:08 | -6.11588 | 106.66588 | 29 ft | 1 kts | 251° |
| 2026-05-01 09:08 | -6.11610 | 106.66536 | 31 ft | 12 kts | 245° |
| 2026-05-01 09:08 | -6.11637 | 106.66477 | 31 ft | 15 kts | 246° |
| 2026-05-01 09:09 | -6.11609 | 106.66394 | 32 ft | 14 kts | 336° |
| 2026-05-01 09:09 | -6.11513 | 106.66354 | 31 ft | 16 kts | 337° |
| 2026-05-01 09:09 | -6.11369 | 106.66293 | 31 ft | 17 kts | 332° |
| 2026-05-01 09:09 | -6.11353 | 106.66229 | 32 ft | 15 kts | 257° |
| 2026-05-01 09:10 | -6.11394 | 106.66122 | 32 ft | 18 kts | 248° |
| 2026-05-01 09:10 | -6.11445 | 106.65997 | 32 ft | 20 kts | 248° |
| 2026-05-01 09:10 | -6.11501 | 106.65856 | 32 ft | 23 kts | 248° |
| 2026-05-01 09:10 | -6.11560 | 106.65704 | 33 ft | 24 kts | 248° |
| 2026-05-01 09:11 | -6.11619 | 106.65557 | 33 ft | 22 kts | 248° |
| 2026-05-01 09:11 | -6.11670 | 106.65431 | 34 ft | 16 kts | 248° |
| 2026-05-01 09:11 | -6.11715 | 106.65319 | 35 ft | 18 kts | 248° |
| 2026-05-01 09:11 | -6.11765 | 106.65193 | 35 ft | 20 kts | 248° |
| 2026-05-01 09:12 | -6.11820 | 106.65054 | 36 ft | 22 kts | 248° |
| 2026-05-01 09:12 | -6.11880 | 106.64903 | 37 ft | 24 kts | 248° |
| 2026-05-01 09:12 | -6.11936 | 106.64763 | 37 ft | 20 kts | 248° |
| 2026-05-01 09:12 | -6.11991 | 106.64626 | 38 ft | 22 kts | 248° |
| 2026-05-01 09:13 | -6.12051 | 106.64475 | 38 ft | 24 kts | 248° |
| 2026-05-01 09:13 | -6.12101 | 106.64349 | 38 ft | 15 kts | 248° |
| 2026-05-01 09:13 | -6.12144 | 106.64242 | 39 ft | 18 kts | 248° |
| 2026-05-01 09:13 | -6.12193 | 106.64119 | 39 ft | 19 kts | 248° |
| 2026-05-01 09:14 | -6.12239 | 106.64005 | 40 ft | 10 kts | 248° |
| 2026-05-01 09:14 | -6.12252 | 106.63933 | 40 ft | 11 kts | 277° |
| 2026-05-01 09:14 | -6.12194 | 106.63882 | 41 ft | 13 kts | 349° |
| 2026-05-01 09:14 | -6.12108 | 106.63915 | 40 ft | 15 kts | 31° |
| 2026-05-01 09:15 | -6.12043 | 106.64001 | 39 ft | 17 kts | 69° |
| 2026-05-01 09:15 | -6.11974 | 106.64175 | 38 ft | 52 kts | 68° |
| 2026-05-01 09:15 | -6.11746 | 106.64749 | 39 ft | 122 kts | 68° |
| 2026-05-01 09:15 | -6.11363 | 106.65705 | 211 ft | 164 kts | 66° |
| 2026-05-01 09:16 | -6.10958 | 106.66758 | 948 ft | 162 kts | 68° |
| 2026-05-01 09:16 | -6.10964 | 106.67918 | 1590 ft | 173 kts | 99° |
| 2026-05-01 09:16 | -6.11054 | 106.69214 | 1795 ft | 203 kts | 77° |
| 2026-05-01 09:17 | -6.09123 | 106.71654 | 2399 ft | 255 kts | 31° |
| 2026-05-01 09:17 | -6.07492 | 106.72445 | 3083 ft | 264 kts | 23° |
| 2026-05-01 09:17 | -6.03984 | 106.73846 | 4529 ft | 276 kts | 22° |
| 2026-05-01 09:18 | -6.02177 | 106.74529 | 4910 ft | 279 kts | 21° |
| 2026-05-01 09:18 | -5.98405 | 106.75433 | 5021 ft | 283 kts | 354° |
| 2026-05-01 09:19 | -5.95323 | 106.73257 | 5027 ft | 281 kts | 297° |
| 2026-05-01 09:19 | -5.94456 | 106.71496 | 5016 ft | 283 kts | 293° |
| 2026-05-01 09:19 | -5.93640 | 106.69699 | 5021 ft | 283 kts | 293° |
| 2026-05-01 09:20 | -5.92003 | 106.66122 | 5017 ft | 282 kts | 293° |
| 2026-05-01 09:20 | -5.90354 | 106.62558 | 5011 ft | 282 kts | 294° |
| 2026-05-01 09:21 | -5.88709 | 106.59026 | 5422 ft | 284 kts | 294° |
| 2026-05-01 09:21 | -5.87869 | 106.57219 | 6191 ft | 286 kts | 294° |
| 2026-05-01 09:21 | -5.86172 | 106.53572 | 7860 ft | 291 kts | 295° |
| 2026-05-01 09:22 | -5.84437 | 106.49851 | 9558 ft | 298 kts | 295° |
| 2026-05-01 09:22 | -5.82626 | 106.45968 | 10674 ft | 325 kts | 295° |
| 2026-05-01 09:23 | -5.81643 | 106.43865 | 10973 ft | 345 kts | 295° |
| 2026-05-01 09:23 | -5.79522 | 106.39289 | 11879 ft | 369 kts | 295° |
| 2026-05-01 09:24 | -5.77329 | 106.34561 | 13197 ft | 378 kts | 295° |
| 2026-05-01 09:24 | -5.76215 | 106.32162 | 13706 ft | 380 kts | 295° |
| 2026-05-01 09:24 | -5.73664 | 106.27523 | 13816 ft | 382 kts | 311° |
| 2026-05-01 09:25 | -5.69306 | 106.24473 | 14514 ft | 386 kts | 331° |
| 2026-05-01 09:25 | -5.64576 | 106.21828 | 15743 ft | 391 kts | 331° |
| 2026-05-01 09:26 | -5.62222 | 106.20506 | 16317 ft | 394 kts | 331° |
| 2026-05-01 09:26 | -5.57369 | 106.17772 | 17448 ft | 401 kts | 331° |
| 2026-05-01 09:26 | -5.54931 | 106.16398 | 18005 ft | 404 kts | 331° |
| 2026-05-01 09:27 | -5.50031 | 106.13632 | 18957 ft | 410 kts | 331° |
| 2026-05-01 09:27 | -5.47538 | 106.12225 | 19427 ft | 413 kts | 332° |
| 2026-05-01 09:27 | -5.45025 | 106.10807 | 19906 ft | 416 kts | 332° |
| 2026-05-01 09:28 | -5.42497 | 106.09381 | 20396 ft | 418 kts | 332° |
| 2026-05-01 09:28 | -5.39959 | 106.07949 | 20899 ft | 420 kts | 332° |
| 2026-05-01 09:28 | -5.37399 | 106.06509 | 21395 ft | 423 kts | 332° |
| 2026-05-01 09:28 | -5.34825 | 106.05056 | 21893 ft | 426 kts | 332° |
| 2026-05-01 09:29 | -5.29630 | 106.02118 | 22748 ft | 430 kts | 332° |
| 2026-05-01 09:29 | -5.27022 | 106.00644 | 22832 ft | 431 kts | 332° |
| 2026-05-01 09:30 | -5.21781 | 105.97684 | 22830 ft | 434 kts | 332° |
| 2026-05-01 09:30 | -5.19147 | 105.96197 | 22832 ft | 434 kts | 332° |
| 2026-05-01 09:30 | -5.13880 | 105.93224 | 22831 ft | 434 kts | 332° |
| 2026-05-01 09:31 | -5.11245 | 105.91741 | 22851 ft | 435 kts | 332° |
| 2026-05-01 09:31 | -5.08597 | 105.90243 | 23219 ft | 438 kts | 331° |
| 2026-05-01 09:31 | -5.03286 | 105.87209 | 24094 ft | 441 kts | 331° |
| 2026-05-01 09:32 | -5.00611 | 105.85678 | 24496 ft | 443 kts | 331° |
| 2026-05-01 09:32 | -4.95217 | 105.82598 | 25335 ft | 449 kts | 331° |
| 2026-05-01 09:32 | -4.92494 | 105.81046 | 25794 ft | 451 kts | 331° |
| 2026-05-01 09:33 | -4.89754 | 105.79485 | 26272 ft | 454 kts | 331° |
| 2026-05-01 09:33 | -4.87033 | 105.77936 | 26739 ft | 457 kts | 331° |
| 2026-05-01 09:33 | -4.81468 | 105.74768 | 27680 ft | 463 kts | 332° |
| 2026-05-01 09:34 | -4.78654 | 105.73166 | 28145 ft | 466 kts | 332° |
| 2026-05-01 09:34 | -4.75820 | 105.71553 | 28613 ft | 470 kts | 332° |
| 2026-05-01 09:34 | -4.70105 | 105.68301 | 29530 ft | 475 kts | 331° |
| 2026-05-01 09:35 | -4.67223 | 105.66660 | 29949 ft | 478 kts | 331° |
| 2026-05-01 09:35 | -4.61398 | 105.63346 | 30689 ft | 483 kts | 331° |
| 2026-05-01 09:35 | -4.58470 | 105.61680 | 31074 ft | 485 kts | 331° |
| 2026-05-01 09:36 | -4.55523 | 105.60004 | 31417 ft | 488 kts | 331° |
| 2026-05-01 09:36 | -4.52563 | 105.58320 | 31755 ft | 490 kts | 331° |
| 2026-05-01 09:36 | -4.49591 | 105.56630 | 32081 ft | 493 kts | 331° |
| 2026-05-01 09:36 | -4.46599 | 105.54928 | 32408 ft | 495 kts | 331° |
| 2026-05-01 09:37 | -4.43599 | 105.53222 | 32729 ft | 497 kts | 331° |
| 2026-05-01 09:37 | -4.37559 | 105.49788 | 33320 ft | 501 kts | 332° |
| 2026-05-01 09:37 | -4.34516 | 105.48058 | 33607 ft | 503 kts | 332° |
| 2026-05-01 09:38 | -4.28438 | 105.44603 | 34348 ft | 501 kts | 332° |
| 2026-05-01 09:38 | -4.25416 | 105.42884 | 34682 ft | 500 kts | 331° |
| 2026-05-01 09:38 | -4.22385 | 105.41162 | 35011 ft | 500 kts | 331° |
| 2026-05-01 09:39 | -4.16338 | 105.37726 | 35663 ft | 499 kts | 331° |
| 2026-05-01 09:39 | -4.13321 | 105.36012 | 35985 ft | 498 kts | 331° |
| 2026-05-01 09:39 | -4.10308 | 105.34300 | 36283 ft | 498 kts | 331° |
| 2026-05-01 09:40 | -4.07305 | 105.32595 | 36593 ft | 497 kts | 331° |
| 2026-05-01 09:40 | -4.01278 | 105.29172 | 37115 ft | 499 kts | 331° |
| 2026-05-01 09:40 | -3.98262 | 105.27460 | 37425 ft | 498 kts | 331° |
| 2026-05-01 09:41 | -3.95254 | 105.25751 | 37754 ft | 496 kts | 331° |
| 2026-05-01 09:41 | -3.89295 | 105.22375 | 38296 ft | 496 kts | 331° |
| 2026-05-01 09:41 | -3.86282 | 105.20678 | 38552 ft | 496 kts | 331° |
| 2026-05-01 09:42 | -3.83273 | 105.18984 | 38774 ft | 496 kts | 331° |
| 2026-05-01 09:42 | -3.80271 | 105.17295 | 38967 ft | 495 kts | 331° |
| 2026-05-01 09:42 | -3.74228 | 105.13895 | 39439 ft | 494 kts | 331° |
| 2026-05-01 09:43 | -3.68239 | 105.10524 | 39791 ft | 494 kts | 331° |
| 2026-05-01 09:43 | -3.62253 | 105.07155 | 39812 ft | 494 kts | 331° |
| 2026-05-01 09:44 | -3.53265 | 105.02097 | 39809 ft | 494 kts | 331° |
| 2026-05-01 09:45 | -3.47313 | 104.98749 | 39812 ft | 494 kts | 331° |
| 2026-05-01 09:45 | -3.38318 | 104.93689 | 39828 ft | 494 kts | 331° |
| 2026-05-01 09:46 | -3.32325 | 104.90318 | 39805 ft | 494 kts | 332° |
| 2026-05-01 09:46 | -3.26333 | 104.86948 | 39806 ft | 494 kts | 332° |
| 2026-05-01 09:47 | -3.20336 | 104.83577 | 39803 ft | 494 kts | 332° |
| 2026-05-01 09:47 | -3.14345 | 104.80209 | 39801 ft | 494 kts | 332° |
| 2026-05-01 09:48 | -3.08347 | 104.76837 | 39812 ft | 494 kts | 332° |
| 2026-05-01 09:48 | -3.02350 | 104.73467 | 39807 ft | 494 kts | 332° |
| 2026-05-01 09:49 | -2.96352 | 104.70096 | 39806 ft | 494 kts | 332° |
| 2026-05-01 09:49 | -2.90333 | 104.66767 | 39809 ft | 494 kts | 335° |
| 2026-05-01 09:50 | -2.83867 | 104.64596 | 39794 ft | 490 kts | 348° |
| 2026-05-01 09:50 | -2.77189 | 104.63227 | 39821 ft | 490 kts | 351° |
| 2026-05-01 09:51 | -2.70483 | 104.61993 | 39818 ft | 490 kts | 351° |
| 2026-05-01 09:51 | -2.63776 | 104.60758 | 39822 ft | 490 kts | 351° |
| 2026-05-01 09:52 | -2.57075 | 104.59502 | 39816 ft | 490 kts | 351° |
| 2026-05-01 09:52 | -2.50388 | 104.58238 | 39818 ft | 488 kts | 351° |
| 2026-05-01 09:53 | -2.43711 | 104.56975 | 39824 ft | 488 kts | 351° |
| 2026-05-01 09:53 | -2.37077 | 104.55721 | 39829 ft | 488 kts | 351° |
| 2026-05-01 09:54 | -2.30400 | 104.54459 | 39824 ft | 488 kts | 351° |
| 2026-05-01 09:54 | -2.23724 | 104.53198 | 39824 ft | 488 kts | 351° |
| 2026-05-01 09:55 | -2.17040 | 104.51936 | 39824 ft | 489 kts | 351° |
| 2026-05-01 09:55 | -2.11480 | 104.50886 | 39823 ft | 489 kts | 351° |
| 2026-05-01 09:56 | -2.04746 | 104.49614 | 39824 ft | 489 kts | 351° |
| 2026-05-01 09:56 | -1.98101 | 104.48359 | 39823 ft | 489 kts | 351° |
| 2026-05-01 09:57 | -1.91412 | 104.47096 | 39829 ft | 489 kts | 351° |
| 2026-05-01 09:57 | -1.84727 | 104.45834 | 39835 ft | 489 kts | 351° |
| 2026-05-01 09:58 | -1.78028 | 104.44569 | 39833 ft | 490 kts | 351° |
| 2026-05-01 09:58 | -1.71328 | 104.43304 | 39835 ft | 490 kts | 351° |
| 2026-05-01 09:59 | -1.64623 | 104.42039 | 39834 ft | 490 kts | 351° |
| 2026-05-01 09:59 | -1.57924 | 104.40774 | 39839 ft | 490 kts | 351° |
| 2026-05-01 10:00 | -1.51226 | 104.39510 | 39839 ft | 490 kts | 351° |
| 2026-05-01 10:00 | -1.44519 | 104.38244 | 39843 ft | 489 kts | 351° |
| 2026-05-01 10:01 | -1.37877 | 104.36991 | 39846 ft | 488 kts | 351° |
| 2026-05-01 10:01 | -1.31197 | 104.35730 | 39846 ft | 488 kts | 351° |
| 2026-05-01 10:02 | -1.24524 | 104.34471 | 39843 ft | 488 kts | 351° |
| 2026-05-01 10:02 | -1.17856 | 104.33212 | 39844 ft | 488 kts | 351° |
| 2026-05-01 10:03 | -1.11186 | 104.31954 | 39848 ft | 488 kts | 351° |
| 2026-05-01 10:03 | -1.04537 | 104.30699 | 39844 ft | 485 kts | 350° |
| 2026-05-01 10:04 | -0.97920 | 104.29451 | 39843 ft | 483 kts | 351° |
| 2026-05-01 10:04 | -0.91303 | 104.28203 | 39844 ft | 483 kts | 351° |
| 2026-05-01 10:05 | -0.84696 | 104.26956 | 39847 ft | 483 kts | 350° |
| 2026-05-01 10:05 | -0.78083 | 104.25709 | 39845 ft | 483 kts | 350° |
| 2026-05-01 10:06 | -0.71475 | 104.24463 | 39846 ft | 483 kts | 350° |
| 2026-05-01 10:06 | -0.64921 | 104.23226 | 39848 ft | 482 kts | 350° |
| 2026-05-01 10:07 | -0.58324 | 104.21982 | 39845 ft | 482 kts | 350° |
| 2026-05-01 10:07 | -0.51730 | 104.20708 | 39846 ft | 483 kts | 350° |
| 2026-05-01 10:08 | -0.41851 | 104.18733 | 39843 ft | 483 kts | 350° |
| 2026-05-01 10:09 | -0.35257 | 104.17421 | 39848 ft | 483 kts | 350° |
| 2026-05-01 10:09 | -0.28654 | 104.16110 | 39810 ft | 482 kts | 350° |
| 2026-05-01 10:09 | -0.25384 | 104.15460 | 39327 ft | 478 kts | 350° |
| 2026-05-01 10:10 | -0.22120 | 104.14812 | 38672 ft | 478 kts | 350° |
| 2026-05-01 10:10 | -0.18851 | 104.14163 | 37930 ft | 479 kts | 350° |
| 2026-05-01 10:10 | -0.12277 | 104.12860 | 36283 ft | 484 kts | 350° |
| 2026-05-01 10:11 | -0.08963 | 104.12202 | 35452 ft | 487 kts | 350° |
| 2026-05-01 10:11 | -0.05637 | 104.11542 | 34672 ft | 489 kts | 350° |